sensor_id;sensor_type;location;lat;lon;timestamp;P1;durP1;ratioP1;P2;durP2;ratioP2
68614;SDS011;55593;51.994;5.882;2022-11-10T00:00:20;23.60;;;5.03;;
68614;SDS011;55593;51.994;5.882;2022-11-10T00:03:09;20.10;;;5.03;;
68614;SDS011;55593;51.994;5.882;2022-11-10T00:05:56;20.35;;;4.53;;
68614;SDS011;55593;51.994;5.882;2022-11-10T00:08:46;21.73;;;6.32;;
68614;SDS011;55593;51.994;5.882;2022-11-10T00:11:34;22.63;;;4.57;;
68614;SDS011;55593;51.994;5.882;2022-11-10T00:14:22;18.65;;;5.45;;
68614;SDS011;55593;51.994;5.882;2022-11-10T00:17:22;21.85;;;5.03;;
68614;SDS011;55593;51.994;5.882;2022-11-10T00:20:10;22.52;;;5.50;;
68614;SDS011;55593;51.994;5.882;2022-11-10T00:22:58;24.58;;;5.03;;
68614;SDS011;55593;51.994;5.882;2022-11-10T00:25:48;21.73;;;5.20;;
68614;SDS011;55593;51.994;5.882;2022-11-10T00:28:36;22.45;;;5.72;;
68614;SDS011;55593;51.994;5.882;2022-11-10T00:31:23;20.65;;;5.13;;
68614;SDS011;55593;51.994;5.882;2022-11-10T00:34:13;25.80;;;5.55;;
68614;SDS011;55593;51.994;5.882;2022-11-10T00:37:01;17.02;;;4.40;;
68614;SDS011;55593;51.994;5.882;2022-11-10T00:39:49;19.40;;;5.63;;
68614;SDS011;55593;51.994;5.882;2022-11-10T00:42:39;24.13;;;4.20;;
68614;SDS011;55593;51.994;5.882;2022-11-10T00:45:27;22.45;;;4.30;;
68614;SDS011;55593;51.994;5.882;2022-11-10T00:48:15;21.15;;;4.80;;
68614;SDS011;55593;51.994;5.882;2022-11-10T00:51:03;26.98;;;5.80;;
68614;SDS011;55593;51.994;5.882;2022-11-10T00:53:51;19.40;;;5.00;;
68614;SDS011;55593;51.994;5.882;2022-11-10T00:56:39;17.65;;;4.85;;
68614;SDS011;55593;51.994;5.882;2022-11-10T00:59:29;20.40;;;4.85;;
68614;SDS011;55593;51.994;5.882;2022-11-10T01:02:17;19.23;;;4.53;;
68614;SDS011;55593;51.994;5.882;2022-11-10T01:05:05;22.58;;;5.10;;
68614;SDS011;55593;51.994;5.882;2022-11-10T01:07:53;17.58;;;4.70;;
68614;SDS011;55593;51.994;5.882;2022-11-10T01:10:40;20.77;;;5.32;;
68614;SDS011;55593;51.994;5.882;2022-11-10T01:13:28;20.92;;;4.25;;
68614;SDS011;55593;51.994;5.882;2022-11-10T01:16:18;23.73;;;5.18;;
68614;SDS011;55593;51.994;5.882;2022-11-10T01:19:07;21.00;;;4.53;;
68614;SDS011;55593;51.994;5.882;2022-11-10T01:21:54;13.05;;;4.68;;
68614;SDS011;55593;51.994;5.882;2022-11-10T01:24:44;21.58;;;4.35;;
68614;SDS011;55593;51.994;5.882;2022-11-10T01:27:31;27.90;;;5.50;;
68614;SDS011;55593;51.994;5.882;2022-11-10T01:30:19;21.98;;;5.53;;
68614;SDS011;55593;51.994;5.882;2022-11-10T01:33:09;23.55;;;5.53;;
68614;SDS011;55593;51.994;5.882;2022-11-10T01:35:57;18.60;;;5.43;;
68614;SDS011;55593;51.994;5.882;2022-11-10T01:38:45;20.77;;;5.10;;
68614;SDS011;55593;51.994;5.882;2022-11-10T01:41:33;24.80;;;6.72;;
68614;SDS011;55593;51.994;5.882;2022-11-10T01:44:22;15.85;;;4.40;;
68614;SDS011;55593;51.994;5.882;2022-11-10T01:47:11;24.10;;;4.75;;
68614;SDS011;55593;51.994;5.882;2022-11-10T01:50:01;20.67;;;5.28;;
68614;SDS011;55593;51.994;5.882;2022-11-10T01:52:49;17.15;;;4.57;;
68614;SDS011;55593;51.994;5.882;2022-11-10T01:55:40;19.75;;;4.88;;
68614;SDS011;55593;51.994;5.882;2022-11-10T01:58:29;25.42;;;6.05;;
68614;SDS011;55593;51.994;5.882;2022-11-10T02:01:23;18.20;;;4.90;;
68614;SDS011;55593;51.994;5.882;2022-11-10T02:04:12;25.00;;;5.63;;
68614;SDS011;55593;51.994;5.882;2022-11-10T02:07:04;21.20;;;4.72;;
68614;SDS011;55593;51.994;5.882;2022-11-10T02:09:52;29.67;;;5.75;;
68614;SDS011;55593;51.994;5.882;2022-11-10T02:12:40;27.35;;;5.05;;
68614;SDS011;55593;51.994;5.882;2022-11-10T02:15:28;14.75;;;4.50;;
68614;SDS011;55593;51.994;5.882;2022-11-10T02:18:16;20.48;;;4.85;;
68614;SDS011;55593;51.994;5.882;2022-11-10T02:21:07;26.30;;;5.15;;
68614;SDS011;55593;51.994;5.882;2022-11-10T02:23:55;23.52;;;5.07;;
68614;SDS011;55593;51.994;5.882;2022-11-10T02:26:47;23.30;;;6.32;;
68614;SDS011;55593;51.994;5.882;2022-11-10T02:29:36;24.38;;;5.32;;
68614;SDS011;55593;51.994;5.882;2022-11-10T02:32:25;22.50;;;4.80;;
68614;SDS011;55593;51.994;5.882;2022-11-10T02:35:12;21.55;;;5.30;;
68614;SDS011;55593;51.994;5.882;2022-11-10T02:38:02;20.95;;;5.03;;
68614;SDS011;55593;51.994;5.882;2022-11-10T02:40:50;24.70;;;4.72;;
68614;SDS011;55593;51.994;5.882;2022-11-10T02:43:38;19.73;;;4.47;;
68614;SDS011;55593;51.994;5.882;2022-11-10T02:46:26;25.23;;;4.50;;
68614;SDS011;55593;51.994;5.882;2022-11-10T02:49:14;17.45;;;5.05;;
68614;SDS011;55593;51.994;5.882;2022-11-10T02:52:01;17.58;;;5.53;;
68614;SDS011;55593;51.994;5.882;2022-11-10T02:54:52;23.42;;;5.25;;
68614;SDS011;55593;51.994;5.882;2022-11-10T02:57:39;21.63;;;5.82;;
68614;SDS011;55593;51.994;5.882;2022-11-10T03:00:27;21.80;;;5.40;;
68614;SDS011;55593;51.994;5.882;2022-11-10T03:03:15;27.17;;;5.55;;
68614;SDS011;55593;51.994;5.882;2022-11-10T03:06:02;26.40;;;5.30;;
68614;SDS011;55593;51.994;5.882;2022-11-10T03:08:50;18.77;;;5.30;;
68614;SDS011;55593;51.994;5.882;2022-11-10T03:11:41;21.23;;;4.80;;
68614;SDS011;55593;51.994;5.882;2022-11-10T03:14:29;19.67;;;4.82;;
68614;SDS011;55593;51.994;5.882;2022-11-10T03:17:16;20.95;;;5.20;;
68614;SDS011;55593;51.994;5.882;2022-11-10T03:20:04;20.77;;;4.65;;
68614;SDS011;55593;51.994;5.882;2022-11-10T03:22:54;24.02;;;5.95;;
68614;SDS011;55593;51.994;5.882;2022-11-10T03:25:46;25.10;;;5.18;;
68614;SDS011;55593;51.994;5.882;2022-11-10T03:28:36;23.02;;;4.78;;
68614;SDS011;55593;51.994;5.882;2022-11-10T03:31:24;25.80;;;5.80;;
68614;SDS011;55593;51.994;5.882;2022-11-10T03:34:12;24.35;;;5.25;;
68614;SDS011;55593;51.994;5.882;2022-11-10T03:36:59;18.55;;;5.22;;
68614;SDS011;55593;51.994;5.882;2022-11-10T03:39:47;16.40;;;4.63;;
68614;SDS011;55593;51.994;5.882;2022-11-10T03:42:34;21.73;;;4.93;;
68614;SDS011;55593;51.994;5.882;2022-11-10T03:45:25;17.08;;;4.63;;
68614;SDS011;55593;51.994;5.882;2022-11-10T03:48:12;33.90;;;6.55;;
68614;SDS011;55593;51.994;5.882;2022-11-10T03:51:00;17.05;;;4.43;;
68614;SDS011;55593;51.994;5.882;2022-11-10T03:53:48;20.52;;;5.18;;
68614;SDS011;55593;51.994;5.882;2022-11-10T03:56:35;17.42;;;4.70;;
68614;SDS011;55593;51.994;5.882;2022-11-10T03:59:23;24.15;;;5.43;;
68614;SDS011;55593;51.994;5.882;2022-11-10T04:02:13;27.15;;;5.22;;
68614;SDS011;55593;51.994;5.882;2022-11-10T04:05:03;22.40;;;5.03;;
68614;SDS011;55593;51.994;5.882;2022-11-10T04:08:18;20.30;;;4.97;;
68614;SDS011;55593;51.994;5.882;2022-11-10T04:11:18;23.65;;;5.40;;
68614;SDS011;55593;51.994;5.882;2022-11-10T04:14:18;26.02;;;6.00;;
68614;SDS011;55593;51.994;5.882;2022-11-10T04:17:21;22.23;;;4.95;;
68614;SDS011;55593;51.994;5.882;2022-11-10T04:20:09;24.30;;;5.25;;
68614;SDS011;55593;51.994;5.882;2022-11-10T04:22:57;28.80;;;6.10;;
68614;SDS011;55593;51.994;5.882;2022-11-10T04:25:59;30.65;;;6.53;;
68614;SDS011;55593;51.994;5.882;2022-11-10T04:29:00;22.25;;;5.25;;
68614;SDS011;55593;51.994;5.882;2022-11-10T04:31:49;25.88;;;5.10;;
68614;SDS011;55593;51.994;5.882;2022-11-10T04:34:39;19.27;;;4.75;;
68614;SDS011;55593;51.994;5.882;2022-11-10T04:37:27;18.92;;;4.75;;
68614;SDS011;55593;51.994;5.882;2022-11-10T04:40:14;22.42;;;4.80;;
68614;SDS011;55593;51.994;5.882;2022-11-10T04:43:02;27.13;;;6.00;;
68614;SDS011;55593;51.994;5.882;2022-11-10T04:45:49;21.38;;;5.47;;
68614;SDS011;55593;51.994;5.882;2022-11-10T04:48:37;20.48;;;5.43;;
68614;SDS011;55593;51.994;5.882;2022-11-10T04:51:29;26.45;;;6.03;;
68614;SDS011;55593;51.994;5.882;2022-11-10T04:54:17;28.67;;;6.60;;
68614;SDS011;55593;51.994;5.882;2022-11-10T04:57:05;20.70;;;4.93;;
68614;SDS011;55593;51.994;5.882;2022-11-10T04:59:52;18.83;;;4.88;;
68614;SDS011;55593;51.994;5.882;2022-11-10T05:02:40;21.38;;;5.32;;
68614;SDS011;55593;51.994;5.882;2022-11-10T05:05:27;27.88;;;5.32;;
68614;SDS011;55593;51.994;5.882;2022-11-10T05:08:17;23.15;;;4.93;;
68614;SDS011;55593;51.994;5.882;2022-11-10T05:11:05;33.33;;;5.60;;
68614;SDS011;55593;51.994;5.882;2022-11-10T05:13:53;25.35;;;5.70;;
68614;SDS011;55593;51.994;5.882;2022-11-10T05:16:41;26.63;;;5.40;;
68614;SDS011;55593;51.994;5.882;2022-11-10T05:19:28;22.40;;;5.60;;
68614;SDS011;55593;51.994;5.882;2022-11-10T05:22:15;22.17;;;6.45;;
68614;SDS011;55593;51.994;5.882;2022-11-10T05:25:07;22.52;;;4.90;;
68614;SDS011;55593;51.994;5.882;2022-11-10T05:27:55;25.23;;;6.40;;
68614;SDS011;55593;51.994;5.882;2022-11-10T05:30:43;19.35;;;4.25;;
68614;SDS011;55593;51.994;5.882;2022-11-10T05:33:31;24.50;;;5.55;;
68614;SDS011;55593;51.994;5.882;2022-11-10T05:36:19;32.65;;;6.03;;
68614;SDS011;55593;51.994;5.882;2022-11-10T05:39:07;30.38;;;6.30;;
68614;SDS011;55593;51.994;5.882;2022-11-10T05:41:57;16.00;;;4.53;;
68614;SDS011;55593;51.994;5.882;2022-11-10T05:44:45;27.85;;;4.88;;
68614;SDS011;55593;51.994;5.882;2022-11-10T05:47:34;29.50;;;4.85;;
68614;SDS011;55593;51.994;5.882;2022-11-10T05:50:22;26.60;;;4.68;;
68614;SDS011;55593;51.994;5.882;2022-11-10T05:53:10;19.30;;;4.53;;
68614;SDS011;55593;51.994;5.882;2022-11-10T05:55:58;31.08;;;5.82;;
68614;SDS011;55593;51.994;5.882;2022-11-10T05:58:48;33.38;;;5.55;;
68614;SDS011;55593;51.994;5.882;2022-11-10T06:01:35;22.27;;;4.63;;
68614;SDS011;55593;51.994;5.882;2022-11-10T06:04:23;21.55;;;4.13;;
68614;SDS011;55593;51.994;5.882;2022-11-10T06:07:11;20.23;;;5.63;;
68614;SDS011;55593;51.994;5.882;2022-11-10T06:09:59;27.85;;;6.50;;
68614;SDS011;55593;51.994;5.882;2022-11-10T06:12:46;27.42;;;6.35;;
68614;SDS011;55593;51.994;5.882;2022-11-10T06:15:37;24.73;;;5.32;;
68614;SDS011;55593;51.994;5.882;2022-11-10T06:18:27;24.33;;;4.88;;
68614;SDS011;55593;51.994;5.882;2022-11-10T06:21:15;31.20;;;4.75;;
68614;SDS011;55593;51.994;5.882;2022-11-10T06:24:03;36.78;;;6.60;;
68614;SDS011;55593;51.994;5.882;2022-11-10T06:26:51;32.30;;;5.75;;
68614;SDS011;55593;51.994;5.882;2022-11-10T06:29:38;20.52;;;4.63;;
68614;SDS011;55593;51.994;5.882;2022-11-10T06:32:28;29.13;;;5.57;;
68614;SDS011;55593;51.994;5.882;2022-11-10T06:35:17;21.75;;;4.85;;
68614;SDS011;55593;51.994;5.882;2022-11-10T06:38:06;29.48;;;5.32;;
68614;SDS011;55593;51.994;5.882;2022-11-10T06:40:56;25.92;;;4.18;;
68614;SDS011;55593;51.994;5.882;2022-11-10T06:43:43;20.75;;;4.70;;
68614;SDS011;55593;51.994;5.882;2022-11-10T06:46:31;27.38;;;5.03;;
68614;SDS011;55593;51.994;5.882;2022-11-10T06:49:21;23.92;;;4.20;;
68614;SDS011;55593;51.994;5.882;2022-11-10T06:52:09;19.65;;;4.88;;
68614;SDS011;55593;51.994;5.882;2022-11-10T06:54:57;21.25;;;4.65;;
68614;SDS011;55593;51.994;5.882;2022-11-10T06:57:45;38.08;;;5.95;;
68614;SDS011;55593;51.994;5.882;2022-11-10T07:00:33;29.63;;;4.80;;
68614;SDS011;55593;51.994;5.882;2022-11-10T07:03:20;35.13;;;6.50;;
68614;SDS011;55593;51.994;5.882;2022-11-10T07:06:10;21.42;;;4.15;;
68614;SDS011;55593;51.994;5.882;2022-11-10T07:08:58;29.42;;;5.18;;
68614;SDS011;55593;51.994;5.882;2022-11-10T07:11:46;28.80;;;5.30;;
68614;SDS011;55593;51.994;5.882;2022-11-10T07:14:33;23.67;;;4.88;;
68614;SDS011;55593;51.994;5.882;2022-11-10T07:17:21;25.33;;;5.13;;
68614;SDS011;55593;51.994;5.882;2022-11-10T07:20:09;14.70;;;4.30;;
68614;SDS011;55593;51.994;5.882;2022-11-10T07:23:00;29.67;;;5.10;;
68614;SDS011;55593;51.994;5.882;2022-11-10T07:25:50;28.55;;;4.43;;
68614;SDS011;55593;51.994;5.882;2022-11-10T07:28:37;25.88;;;4.63;;
68614;SDS011;55593;51.994;5.882;2022-11-10T07:31:25;23.55;;;4.88;;
68614;SDS011;55593;51.994;5.882;2022-11-10T07:34:13;23.23;;;5.70;;
68614;SDS011;55593;51.994;5.882;2022-11-10T07:37:01;20.10;;;4.30;;
68614;SDS011;55593;51.994;5.882;2022-11-10T07:39:51;21.85;;;4.60;;
68614;SDS011;55593;51.994;5.882;2022-11-10T07:42:39;21.00;;;3.78;;
68614;SDS011;55593;51.994;5.882;2022-11-10T07:45:27;26.17;;;4.82;;
68614;SDS011;55593;51.994;5.882;2022-11-10T07:48:15;20.63;;;4.97;;
68614;SDS011;55593;51.994;5.882;2022-11-10T07:51:03;20.38;;;4.00;;
68614;SDS011;55593;51.994;5.882;2022-11-10T07:53:51;28.83;;;6.70;;
68614;SDS011;55593;51.994;5.882;2022-11-10T07:56:41;20.50;;;3.95;;
68614;SDS011;55593;51.994;5.882;2022-11-10T07:59:29;22.55;;;5.22;;
68614;SDS011;55593;51.994;5.882;2022-11-10T08:02:17;22.70;;;4.10;;
68614;SDS011;55593;51.994;5.882;2022-11-10T08:05:05;21.02;;;4.85;;
68614;SDS011;55593;51.994;5.882;2022-11-10T08:07:53;23.92;;;4.80;;
68614;SDS011;55593;51.994;5.882;2022-11-10T08:10:41;23.40;;;5.68;;
68614;SDS011;55593;51.994;5.882;2022-11-10T08:13:32;36.88;;;5.22;;
68614;SDS011;55593;51.994;5.882;2022-11-10T08:16:20;27.63;;;6.10;;
68614;SDS011;55593;51.994;5.882;2022-11-10T08:19:07;24.83;;;5.25;;
68614;SDS011;55593;51.994;5.882;2022-11-10T08:21:55;26.27;;;6.70;;
68614;SDS011;55593;51.994;5.882;2022-11-10T08:24:42;27.67;;;5.13;;
68614;SDS011;55593;51.994;5.882;2022-11-10T08:27:33;24.98;;;5.20;;
68614;SDS011;55593;51.994;5.882;2022-11-10T08:30:23;20.55;;;5.20;;
68614;SDS011;55593;51.994;5.882;2022-11-10T08:33:12;22.05;;;6.20;;
68614;SDS011;55593;51.994;5.882;2022-11-10T08:36:00;26.35;;;5.43;;
68614;SDS011;55593;51.994;5.882;2022-11-10T08:38:48;28.40;;;6.13;;
68614;SDS011;55593;51.994;5.882;2022-11-10T08:41:36;20.88;;;4.32;;
68614;SDS011;55593;51.994;5.882;2022-11-10T08:44:23;26.92;;;4.85;;
68614;SDS011;55593;51.994;5.882;2022-11-10T08:47:14;31.05;;;6.82;;
68614;SDS011;55593;51.994;5.882;2022-11-10T08:50:01;27.35;;;5.38;;
68614;SDS011;55593;51.994;5.882;2022-11-10T08:52:49;23.67;;;4.85;;
68614;SDS011;55593;51.994;5.882;2022-11-10T08:55:37;26.40;;;5.72;;
68614;SDS011;55593;51.994;5.882;2022-11-10T08:58:25;29.90;;;5.70;;
68614;SDS011;55593;51.994;5.882;2022-11-10T09:01:13;26.00;;;4.88;;
68614;SDS011;55593;51.994;5.882;2022-11-10T09:04:03;21.50;;;4.93;;
68614;SDS011;55593;51.994;5.882;2022-11-10T09:06:50;23.67;;;4.95;;
68614;SDS011;55593;51.994;5.882;2022-11-10T09:09:41;28.50;;;5.22;;
68614;SDS011;55593;51.994;5.882;2022-11-10T09:12:28;27.02;;;4.68;;
68614;SDS011;55593;51.994;5.882;2022-11-10T09:15:16;29.15;;;4.90;;
68614;SDS011;55593;51.994;5.882;2022-11-10T09:18:04;28.83;;;5.60;;
68614;SDS011;55593;51.994;5.882;2022-11-10T09:20:56;29.45;;;5.15;;
68614;SDS011;55593;51.994;5.882;2022-11-10T09:23:43;18.10;;;4.50;;
68614;SDS011;55593;51.994;5.882;2022-11-10T09:26:31;29.40;;;4.75;;
68614;SDS011;55593;51.994;5.882;2022-11-10T09:29:18;28.95;;;5.22;;
68614;SDS011;55593;51.994;5.882;2022-11-10T09:32:07;24.52;;;5.07;;
68614;SDS011;55593;51.994;5.882;2022-11-10T09:34:54;21.63;;;5.00;;
68614;SDS011;55593;51.994;5.882;2022-11-10T09:37:45;27.88;;;5.53;;
68614;SDS011;55593;51.994;5.882;2022-11-10T09:40:43;31.73;;;6.97;;
68614;SDS011;55593;51.994;5.882;2022-11-10T09:43:36;21.63;;;5.65;;
68614;SDS011;55593;51.994;5.882;2022-11-10T09:46:28;18.23;;;4.75;;
68614;SDS011;55593;51.994;5.882;2022-11-10T09:49:24;23.20;;;4.97;;
68614;SDS011;55593;51.994;5.882;2022-11-10T09:52:17;22.20;;;4.40;;
68614;SDS011;55593;51.994;5.882;2022-11-10T09:55:12;28.90;;;4.60;;
68614;SDS011;55593;51.994;5.882;2022-11-10T09:58:07;27.50;;;5.57;;
68614;SDS011;55593;51.994;5.882;2022-11-10T10:00:58;18.40;;;4.78;;
68614;SDS011;55593;51.994;5.882;2022-11-10T10:03:51;23.85;;;6.20;;
68614;SDS011;55593;51.994;5.882;2022-11-10T10:06:44;17.73;;;4.93;;
68614;SDS011;55593;51.994;5.882;2022-11-10T10:09:39;21.70;;;5.35;;
68614;SDS011;55593;51.994;5.882;2022-11-10T10:12:39;23.20;;;6.00;;
68614;SDS011;55593;51.994;5.882;2022-11-10T10:15:37;23.50;;;5.13;;
68614;SDS011;55593;51.994;5.882;2022-11-10T10:18:32;24.02;;;5.13;;
68614;SDS011;55593;51.994;5.882;2022-11-10T10:21:28;32.20;;;5.13;;
68614;SDS011;55593;51.994;5.882;2022-11-10T10:24:21;19.45;;;4.28;;
68614;SDS011;55593;51.994;5.882;2022-11-10T10:27:11;19.55;;;4.25;;
68614;SDS011;55593;51.994;5.882;2022-11-10T10:30:09;19.92;;;4.25;;
68614;SDS011;55593;51.994;5.882;2022-11-10T10:33:00;27.95;;;5.22;;
68614;SDS011;55593;51.994;5.882;2022-11-10T10:36:02;29.30;;;4.45;;
68614;SDS011;55593;51.994;5.882;2022-11-10T10:38:54;16.60;;;3.85;;
68614;SDS011;55593;51.994;5.882;2022-11-10T10:41:44;24.55;;;5.00;;
68614;SDS011;55593;51.994;5.882;2022-11-10T10:44:32;21.55;;;4.88;;
68614;SDS011;55593;51.994;5.882;2022-11-10T10:47:22;20.45;;;5.75;;
68614;SDS011;55593;51.994;5.882;2022-11-10T10:50:27;23.15;;;5.28;;
68614;SDS011;55593;51.994;5.882;2022-11-10T10:53:16;18.90;;;4.35;;
68614;SDS011;55593;51.994;5.882;2022-11-10T10:56:06;20.02;;;4.15;;
68614;SDS011;55593;51.994;5.882;2022-11-10T10:59:01;20.30;;;4.07;;
68614;SDS011;55593;51.994;5.882;2022-11-10T11:01:51;19.45;;;4.38;;
68614;SDS011;55593;51.994;5.882;2022-11-10T11:04:42;22.73;;;4.28;;
68614;SDS011;55593;51.994;5.882;2022-11-10T11:07:30;23.75;;;4.28;;
68614;SDS011;55593;51.994;5.882;2022-11-10T11:10:18;14.50;;;4.22;;
68614;SDS011;55593;51.994;5.882;2022-11-10T11:13:14;26.38;;;4.45;;
68614;SDS011;55593;51.994;5.882;2022-11-10T11:16:05;20.23;;;4.45;;
68614;SDS011;55593;51.994;5.882;2022-11-10T11:18:56;22.63;;;4.32;;
68614;SDS011;55593;51.994;5.882;2022-11-10T11:21:48;25.98;;;4.90;;
68614;SDS011;55593;51.994;5.882;2022-11-10T11:24:42;22.60;;;4.13;;
68614;SDS011;55593;51.994;5.882;2022-11-10T11:27:35;14.02;;;3.55;;
68614;SDS011;55593;51.994;5.882;2022-11-10T11:30:27;15.65;;;3.63;;
68614;SDS011;55593;51.994;5.882;2022-11-10T11:33:20;20.58;;;4.05;;
68614;SDS011;55593;51.994;5.882;2022-11-10T11:36:16;26.52;;;5.22;;
68614;SDS011;55593;51.994;5.882;2022-11-10T11:39:15;15.52;;;3.15;;
68614;SDS011;55593;51.994;5.882;2022-11-10T11:42:14;18.45;;;3.67;;
68614;SDS011;55593;51.994;5.882;2022-11-10T11:45:12;27.33;;;5.10;;
68614;SDS011;55593;51.994;5.882;2022-11-10T11:51:33;20.33;;;4.13;;
68614;SDS011;55593;51.994;5.882;2022-11-10T11:54:28;16.42;;;3.35;;
68614;SDS011;55593;51.994;5.882;2022-11-10T11:57:28;26.00;;;3.92;;
68614;SDS011;55593;51.994;5.882;2022-11-10T12:00:19;24.38;;;4.78;;
68614;SDS011;55593;51.994;5.882;2022-11-10T12:06:23;19.38;;;4.30;;
68614;SDS011;55593;51.994;5.882;2022-11-10T12:09:16;20.88;;;3.83;;
68614;SDS011;55593;51.994;5.882;2022-11-10T12:12:15;18.02;;;3.85;;
68614;SDS011;55593;51.994;5.882;2022-11-10T12:15:17;14.00;;;3.03;;
68614;SDS011;55593;51.994;5.882;2022-11-10T12:18:14;20.88;;;3.85;;
68614;SDS011;55593;51.994;5.882;2022-11-10T12:24:07;23.83;;;3.42;;
68614;SDS011;55593;51.994;5.882;2022-11-10T12:27:11;17.33;;;3.57;;
68614;SDS011;55593;51.994;5.882;2022-11-10T12:30:07;20.20;;;3.92;;
68614;SDS011;55593;51.994;5.882;2022-11-10T12:32:57;13.23;;;2.72;;
68614;SDS011;55593;51.994;5.882;2022-11-10T12:35:49;16.23;;;3.40;;
68614;SDS011;55593;51.994;5.882;2022-11-10T12:38:41;19.38;;;3.20;;
68614;SDS011;55593;51.994;5.882;2022-11-10T12:41:33;16.75;;;3.38;;
68614;SDS011;55593;51.994;5.882;2022-11-10T12:44:29;17.83;;;3.72;;
68614;SDS011;55593;51.994;5.882;2022-11-10T12:47:18;16.67;;;3.63;;
68614;SDS011;55593;51.994;5.882;2022-11-10T12:50:18;18.48;;;3.60;;
68614;SDS011;55593;51.994;5.882;2022-11-10T12:53:22;16.17;;;2.65;;
68614;SDS011;55593;51.994;5.882;2022-11-10T12:56:12;25.00;;;3.80;;
68614;SDS011;55593;51.994;5.882;2022-11-10T12:59:14;25.08;;;4.10;;
68614;SDS011;55593;51.994;5.882;2022-11-10T13:02:19;18.55;;;3.50;;
68614;SDS011;55593;51.994;5.882;2022-11-10T13:05:22;21.63;;;3.25;;
68614;SDS011;55593;51.994;5.882;2022-11-10T13:08:13;15.93;;;3.30;;
68614;SDS011;55593;51.994;5.882;2022-11-10T13:11:06;13.18;;;2.78;;
68614;SDS011;55593;51.994;5.882;2022-11-10T13:14:18;20.13;;;3.72;;
68614;SDS011;55593;51.994;5.882;2022-11-10T13:17:07;21.20;;;3.05;;
68614;SDS011;55593;51.994;5.882;2022-11-10T13:19:58;19.38;;;4.13;;
68614;SDS011;55593;51.994;5.882;2022-11-10T13:22:46;13.95;;;3.05;;
68614;SDS011;55593;51.994;5.882;2022-11-10T13:25:40;20.38;;;4.05;;
68614;SDS011;55593;51.994;5.882;2022-11-10T13:31:50;18.57;;;3.33;;
68614;SDS011;55593;51.994;5.882;2022-11-10T13:34:39;15.63;;;2.70;;
68614;SDS011;55593;51.994;5.882;2022-11-10T13:40:38;14.07;;;3.22;;
68614;SDS011;55593;51.994;5.882;2022-11-10T13:43:27;9.18;;;2.60;;
68614;SDS011;55593;51.994;5.882;2022-11-10T13:46:15;12.43;;;3.05;;
68614;SDS011;55593;51.994;5.882;2022-11-10T13:49:15;16.77;;;2.90;;
68614;SDS011;55593;51.994;5.882;2022-11-10T13:52:33;21.05;;;3.00;;
68614;SDS011;55593;51.994;5.882;2022-11-10T13:55:33;17.17;;;2.92;;
68614;SDS011;55593;51.994;5.882;2022-11-10T13:58:33;11.10;;;2.78;;
68614;SDS011;55593;51.994;5.882;2022-11-10T14:01:24;14.48;;;2.60;;
68614;SDS011;55593;51.994;5.882;2022-11-10T14:07:26;17.05;;;3.50;;
68614;SDS011;55593;51.994;5.882;2022-11-10T14:10:17;11.32;;;2.28;;
68614;SDS011;55593;51.994;5.882;2022-11-10T14:13:13;19.00;;;2.75;;
68614;SDS011;55593;51.994;5.882;2022-11-10T14:16:07;16.65;;;2.35;;
68614;SDS011;55593;51.994;5.882;2022-11-10T14:19:03;18.23;;;2.63;;
68614;SDS011;55593;51.994;5.882;2022-11-10T14:22:05;14.45;;;2.55;;
68614;SDS011;55593;51.994;5.882;2022-11-10T14:24:57;16.08;;;2.80;;
68614;SDS011;55593;51.994;5.882;2022-11-10T14:27:46;13.18;;;2.65;;
68614;SDS011;55593;51.994;5.882;2022-11-10T14:30:37;17.13;;;3.00;;
68614;SDS011;55593;51.994;5.882;2022-11-10T14:33:25;13.52;;;2.30;;
68614;SDS011;55593;51.994;5.882;2022-11-10T14:36:13;11.60;;;2.30;;
68614;SDS011;55593;51.994;5.882;2022-11-10T14:39:01;11.15;;;2.85;;
68614;SDS011;55593;51.994;5.882;2022-11-10T14:41:51;13.07;;;3.30;;
68614;SDS011;55593;51.994;5.882;2022-11-10T14:44:39;16.75;;;3.78;;
68614;SDS011;55593;51.994;5.882;2022-11-10T14:47:29;14.27;;;2.78;;
68614;SDS011;55593;51.994;5.882;2022-11-10T14:50:20;14.98;;;2.17;;
68614;SDS011;55593;51.994;5.882;2022-11-10T14:53:11;15.05;;;2.67;;
68614;SDS011;55593;51.994;5.882;2022-11-10T14:56:05;12.35;;;2.35;;
68614;SDS011;55593;51.994;5.882;2022-11-10T14:59:00;15.38;;;2.92;;
68614;SDS011;55593;51.994;5.882;2022-11-10T15:01:48;13.00;;;2.60;;
68614;SDS011;55593;51.994;5.882;2022-11-10T15:04:41;9.52;;;2.25;;
68614;SDS011;55593;51.994;5.882;2022-11-10T15:07:29;14.15;;;2.80;;
68614;SDS011;55593;51.994;5.882;2022-11-10T15:10:17;16.52;;;3.03;;
68614;SDS011;55593;51.994;5.882;2022-11-10T15:13:13;17.20;;;2.42;;
68614;SDS011;55593;51.994;5.882;2022-11-10T15:19:18;10.43;;;2.38;;
68614;SDS011;55593;51.994;5.882;2022-11-10T15:22:14;12.70;;;2.17;;
68614;SDS011;55593;51.994;5.882;2022-11-10T15:25:07;9.73;;;2.42;;
68614;SDS011;55593;51.994;5.882;2022-11-10T15:27:59;9.40;;;2.28;;
68614;SDS011;55593;51.994;5.882;2022-11-10T15:30:49;9.63;;;2.33;;
68614;SDS011;55593;51.994;5.882;2022-11-10T15:33:38;6.50;;;1.83;;
68614;SDS011;55593;51.994;5.882;2022-11-10T15:36:32;14.18;;;2.30;;
68614;SDS011;55593;51.994;5.882;2022-11-10T15:39:25;12.10;;;2.60;;
68614;SDS011;55593;51.994;5.882;2022-11-10T15:42:14;8.93;;;1.98;;
68614;SDS011;55593;51.994;5.882;2022-11-10T15:45:05;7.22;;;2.08;;
68614;SDS011;55593;51.994;5.882;2022-11-10T15:47:53;8.60;;;2.10;;
68614;SDS011;55593;51.994;5.882;2022-11-10T15:50:42;10.93;;;2.13;;
68614;SDS011;55593;51.994;5.882;2022-11-10T15:53:32;11.05;;;2.85;;
68614;SDS011;55593;51.994;5.882;2022-11-10T15:56:23;11.32;;;2.20;;
68614;SDS011;55593;51.994;5.882;2022-11-10T15:59:11;6.22;;;1.73;;
68614;SDS011;55593;51.994;5.882;2022-11-10T16:01:59;9.32;;;2.40;;
68614;SDS011;55593;51.994;5.882;2022-11-10T16:04:47;12.98;;;2.83;;
68614;SDS011;55593;51.994;5.882;2022-11-10T16:07:37;9.32;;;2.17;;
68614;SDS011;55593;51.994;5.882;2022-11-10T16:10:24;8.65;;;2.22;;
68614;SDS011;55593;51.994;5.882;2022-11-10T16:13:19;13.20;;;2.20;;
68614;SDS011;55593;51.994;5.882;2022-11-10T16:16:09;9.00;;;2.42;;
68614;SDS011;55593;51.994;5.882;2022-11-10T16:18:58;10.50;;;2.20;;
68614;SDS011;55593;51.994;5.882;2022-11-10T16:21:46;13.98;;;3.25;;
68614;SDS011;55593;51.994;5.882;2022-11-10T16:24:33;9.40;;;2.05;;
68614;SDS011;55593;51.994;5.882;2022-11-10T16:27:21;8.98;;;2.67;;
68614;SDS011;55593;51.994;5.882;2022-11-10T16:30:14;11.50;;;2.40;;
68614;SDS011;55593;51.994;5.882;2022-11-10T16:33:03;11.45;;;2.40;;
68614;SDS011;55593;51.994;5.882;2022-11-10T16:35:51;6.28;;;1.75;;
68614;SDS011;55593;51.994;5.882;2022-11-10T16:38:40;9.10;;;2.20;;
68614;SDS011;55593;51.994;5.882;2022-11-10T16:41:28;4.80;;;1.60;;
68614;SDS011;55593;51.994;5.882;2022-11-10T16:44:15;12.48;;;3.08;;
68614;SDS011;55593;51.994;5.882;2022-11-10T16:47:09;7.95;;;2.17;;
68614;SDS011;55593;51.994;5.882;2022-11-10T16:50:01;12.55;;;2.22;;
68614;SDS011;55593;51.994;5.882;2022-11-10T16:52:54;13.68;;;3.05;;
68614;SDS011;55593;51.994;5.882;2022-11-10T16:55:42;9.63;;;2.80;;
68614;SDS011;55593;51.994;5.882;2022-11-10T16:58:29;7.18;;;2.70;;
68614;SDS011;55593;51.994;5.882;2022-11-10T17:01:18;9.50;;;3.15;;
68614;SDS011;55593;51.994;5.882;2022-11-10T17:04:10;10.13;;;2.10;;
68614;SDS011;55593;51.994;5.882;2022-11-10T17:06:59;10.98;;;2.70;;
68614;SDS011;55593;51.994;5.882;2022-11-10T17:09:46;10.30;;;2.35;;
68614;SDS011;55593;51.994;5.882;2022-11-10T17:12:34;6.72;;;1.95;;
68614;SDS011;55593;51.994;5.882;2022-11-10T17:15:23;10.38;;;2.60;;